Time;durP1;ratioP1;P1;durP2;ratioP2;P2;SDS_P1;SDS_P2;PMS_P1;PMS_P2;Temp;Humidity;BMP_temperature;BMP_pressure;BME280_temperature;BME280_humidity;BME280_pressure;Samples;Min_cycle;Max_cycle;Signal;HPM_P1;HPM_P2
2022/12/13 00:02:28;;;;;;;1.80;1.70;;;;;;;1.28;58.54;100132.31;18434101;32;20108;-59
2022/12/13 00:12:33;;;;;;;0.60;0.60;;;;;;;0.83;60.13;100130.06;18430879;32;20089;-59
2022/12/13 00:22:36;;;;;;;0.70;0.70;;;;;;;1.35;58.93;100122.25;18431240;32;20112;-59
2022/12/13 00:32:41;;;;;;;1.23;1.23;;;;;;;0.82;60.11;100125.75;18377452;32;20103;-60
2022/12/13 00:42:44;;;;;;;0.60;0.60;;;;;;;1.10;59.13;100130.91;18365023;32;20480;-59
2022/12/13 00:52:48;;;;;;;0.93;0.93;;;;;;;0.99;59.10;100139.97;18365608;32;20105;-59
2022/12/13 01:02:52;;;;;;;0.53;0.53;;;;;;;1.12;59.39;100143.81;18469166;32;20104;-59
2022/12/13 01:12:57;;;;;;;0.65;0.65;;;;;;;0.53;60.66;100164.19;18493640;32;20116;-59
2022/12/13 01:23:00;;;;;;;0.73;0.73;;;;;;;0.62;59.23;100161.03;18492833;32;20088;-59
2022/12/13 01:33:05;;;;;;;0.70;0.70;;;;;;;0.50;60.76;100171.75;18492768;32;20100;-59
2022/12/13 01:43:23;;;;;;;0.70;0.70;;;;;;;0.99;60.55;100170.81;18492502;32;20514;-59
2022/12/13 01:53:30;;;;;;;0.60;0.60;;;;;;;1.05;59.67;100160.75;18490926;32;20096;-59
2022/12/13 02:03:33;;;;;;;0.70;0.70;;;;;;;1.05;59.87;100182.19;18491640;32;20107;-59
2022/12/13 02:13:38;;;;;;;0.68;0.68;;;;;;;1.19;59.57;100195.50;18490803;32;20111;-59
2022/12/13 02:24:10;;;;;;;0.60;0.60;;;;;;;1.20;59.59;100212.66;18490217;32;20111;-59
2022/12/13 02:34:18;;;;;;;0.80;0.80;;;;;;;1.27;59.43;100218.03;18489449;32;20149;-59
2022/12/13 02:44:25;;;;;;;1.50;1.40;;;;;;;1.13;59.70;100208.12;18489006;32;20126;-59
2022/12/13 02:54:29;;;;;;;0.60;0.60;;;;;;;1.40;59.18;100199.56;18488396;32;20092;-59
2022/12/13 03:06:28;;;;;;;3.47;3.37;;;;;;;1.23;59.09;100206.75;18489886;32;20441;-59
2022/12/13 03:15:13;;;;;;;0.70;0.70;;;;;;;1.23;59.98;100205.06;18497033;32;20116;-59
2022/12/13 03:25:17;;;;;;;0.90;0.90;;;;;;;1.40;58.89;100209.00;18496657;32;20093;-59
2022/12/13 03:35:36;;;;;;;0.70;0.70;;;;;;;1.27;58.66;100211.16;18496111;32;20104;-59
2022/12/13 03:45:47;;;;;;;0.60;0.60;;;;;;;1.28;58.74;100204.34;18496061;32;20088;-59
2022/12/13 03:55:51;;;;;;;0.70;0.70;;;;;;;1.22;58.90;100195.56;18495715;32;20076;-59
2022/12/13 04:05:55;;;;;;;0.70;0.70;;;;;;;0.91;59.09;100215.12;18495306;32;20166;-59
2022/12/13 04:16:00;;;;;;;0.70;0.70;;;;;;;0.67;59.48;100218.62;18495396;32;20097;-59
2022/12/13 04:26:03;;;;;;;0.60;0.60;;;;;;;0.62;59.53;100232.12;18495956;32;20124;-59
2022/12/13 04:36:18;;;;;;;0.70;0.70;;;;;;;0.57;59.95;100238.78;18494528;32;20365;-59
2022/12/13 04:46:34;;;;;;;0.70;0.70;;;;;;;0.73;59.96;100235.06;18494092;32;20104;-59
2022/12/13 04:56:39;;;;;;;0.80;0.80;;;;;;;0.79;59.92;100240.41;18493978;32;20089;-59
2022/12/13 05:06:42;;;;;;;0.70;0.70;;;;;;;0.85;59.66;100232.91;18493602;32;20183;-59
2022/12/13 05:16:46;;;;;;;0.60;0.60;;;;;;;0.77;59.85;100234.38;18493393;32;20115;-59
2022/12/13 05:26:50;;;;;;;3.83;3.63;;;;;;;1.02;58.94;100237.75;18493010;32;20089;-59
2022/12/13 05:36:54;;;;;;;0.70;0.70;;;;;;;1.05;58.79;100232.75;18492618;32;20092;-59
2022/12/13 05:46:58;;;;;;;0.70;0.70;;;;;;;0.91;58.04;100240.84;18494213;32;20101;-59
2022/12/13 05:57:05;;;;;;;0.73;0.73;;;;;;;0.63;57.88;100236.44;18461451;32;20077;-59
2022/12/13 06:07:10;;;;;;;0.60;0.60;;;;;;;0.41;58.81;100239.09;18376123;32;20174;-59
2022/12/13 06:17:15;;;;;;;0.80;0.80;;;;;;;0.22;57.99;100252.09;18365659;32;20098;-59
2022/12/13 06:27:23;;;;;;;0.70;0.70;;;;;;;0.01;58.60;100257.28;18364616;32;20100;-59
2022/12/13 06:37:29;;;;;;;0.73;0.73;;;;;;;-1.12;61.13;100268.16;18364847;32;20139;-58
2022/12/13 06:47:32;;;;;;;0.40;0.40;;;;;;;-0.50;59.34;100282.66;18373704;32;20142;-59
2022/12/13 06:57:37;;;;;;;0.70;0.70;;;;;;;-0.57;59.42;100286.69;18371395;32;20155;-59
2022/12/13 07:07:44;;;;;;;0.80;0.80;;;;;;;-0.51;60.21;100295.44;18374628;32;20115;-59
2022/12/13 07:17:51;;;;;;;0.70;0.70;;;;;;;0.14;59.39;100305.69;18432884;32;20335;-59
2022/12/13 07:27:58;;;;;;;0.70;0.70;;;;;;;0.75;57.69;100316.53;18384635;32;20103;-58
2022/12/13 07:38:07;;;;;;;1.00;1.00;;;;;;;1.51;56.23;100318.28;18371107;32;20109;-59
2022/12/13 07:48:12;;;;;;;0.80;0.80;;;;;;;2.05;55.65;100320.00;18368658;32;20089;-59
2022/12/13 07:58:16;;;;;;;0.60;0.60;;;;;;;2.21;54.48;100330.78;18370565;32;20085;-58
2022/12/13 08:08:19;;;;;;;0.73;0.73;;;;;;;1.92;54.98;100330.75;18414705;32;20119;-58
2022/12/13 08:18:24;;;;;;;0.40;0.40;;;;;;;1.80;56.11;100342.41;18425758;32;20089;-59
2022/12/13 08:28:28;;;;;;;0.60;0.60;;;;;;;1.87;56.72;100348.63;18426813;32;20139;-59
2022/12/13 08:38:32;;;;;;;0.70;0.70;;;;;;;2.00;56.83;100342.16;18432741;32;20488;-59
2022/12/13 08:48:35;;;;;;;0.60;0.60;;;;;;;1.96;57.26;100362.63;18432510;32;20085;-58
2022/12/13 08:58:50;;;;;;;0.70;0.70;;;;;;;2.25;56.82;100360.09;18432361;32;20515;-58
2022/12/13 09:08:54;;;;;;;0.73;0.73;;;;;;;2.51;56.27;100355.72;18431836;32;20137;-59
2022/12/13 09:18:58;;;;;;;0.60;0.60;;;;;;;2.60;56.21;100360.25;18455287;32;20387;-59
2022/12/13 09:29:21;;;;;;;0.95;0.95;;;;;;;2.95;55.15;100337.22;18431457;32;20148;-58
2022/12/13 09:39:28;;;;;;;0.70;0.70;;;;;;;3.31;54.47;100335.59;18430143;32;20146;-59
2022/12/13 09:49:35;;;;;;;1.62;1.55;;;;;;;3.62;53.72;100331.22;18429782;32;20446;-59
2022/12/13 09:59:41;;;;;;;0.75;0.75;;;;;;;3.80;53.34;100332.53;18428775;32;20124;-60
2022/12/13 10:09:44;;;;;;;0.70;0.70;;;;;;;4.08;51.95;100325.41;18427639;32;20090;-59
2022/12/13 10:19:50;;;;;;;1.58;1.55;;;;;;;3.93;49.56;100313.91;18433159;32;20112;-59
2022/12/13 10:30:01;;;;;;;0.62;0.62;;;;;;;3.47;52.57;100316.22;18435616;32;20357;-59
2022/12/13 10:40:06;;;;;;;0.50;0.50;;;;;;;2.76;54.32;100310.91;18434401;32;20077;-59
2022/12/13 10:50:23;;;;;;;0.68;0.68;;;;;;;2.62;53.67;100301.94;18434664;32;20089;-59
2022/12/13 11:00:37;;;;;;;0.60;0.60;;;;;;;2.39;54.49;100288.37;18434182;32;20138;-59
2022/12/13 11:10:41;;;;;;;1.65;1.58;;;;;;;3.69;51.63;100276.31;18442443;32;20096;-59
2022/12/13 11:20:55;;;;;;;0.65;0.65;;;;;;;3.95;50.30;100265.72;18433208;32;20112;-59
2022/12/13 11:31:10;;;;;;;0.60;0.60;;;;;;;3.42;50.50;100263.63;18477526;32;20089;-59
2022/12/13 11:41:18;;;;;;;0.60;0.60;;;;;;;3.50;50.64;100261.22;18417224;32;20101;-59
2022/12/13 11:51:40;;;;;;;0.80;0.80;;;;;;;2.89;52.29;100263.16;18383339;32;20830;-59
2022/12/13 12:01:49;;;;;;;0.70;0.70;;;;;;;4.12;48.78;100249.72;18367280;32;20164;-59
2022/12/13 12:11:58;;;;;;;0.67;0.67;;;;;;;4.30;48.40;100251.81;18424199;32;20153;-59
2022/12/13 12:22:14;;;;;;;0.85;0.85;;;;;;;3.63;49.30;100249.47;18432232;32;20089;-59
2022/12/13 12:32:26;;;;;;;1.25;1.20;;;;;;;4.07;48.42;100248.75;18433138;32;20097;-59
2022/12/13 12:42:49;;;;;;;2.03;1.92;;;;;;;3.82;47.86;100245.62;18428104;32;20117;-59
2022/12/13 12:53:16;;;;;;;;;;;;;;;4.07;47.36;100235.81;18433980;32;20097;-59
2022/12/13 13:03:23;;;;;;;0.60;0.60;;;;;;;4.44;46.14;100234.03;18432639;32;20559;-60
2022/12/13 13:13:44;;;;;;;0.52;0.52;;;;;;;4.86;47.27;100235.72;18423566;32;20141;-60
2022/12/13 13:23:50;;;;;;;;;;;;;;;4.07;47.21;100254.78;18443520;32;20565;-59
2022/12/13 13:33:53;;;;;;;0.75;0.75;;;;;;;4.76;45.61;100264.81;18402870;32;20002;-60
2022/12/13 13:44:00;;;;;;;0.77;0.77;;;;;;;3.77;48.00;100263.59;18452041;32;20116;-60
2022/12/13 13:54:42;;;;;;;0.60;0.60;;;;;;;4.39;46.09;100280.44;18491125;32;20080;-60
2022/12/13 14:05:10;;;;;;;4.40;3.70;;;;;;;4.65;46.12;100284.44;18424925;32;20089;-59
2022/12/13 14:15:59;;;;;;;1.10;1.10;;;;;;;4.75;45.99;100272.53;18428601;32;20409;-60
2022/12/13 14:26:25;;;;;;;0.50;0.50;;;;;;;4.71;46.44;100279.38;18156792;32;20126;-60
2022/12/13 14:36:31;;;;;;;0.68;0.68;;;;;;;4.48;47.72;100290.12;18147814;32;20170;-59
2022/12/13 14:46:36;;;;;;;0.60;0.60;;;;;;;4.25;47.97;100294.81;18147114;32;20140;-59
2022/12/13 14:56:54;;;;;;;0.90;0.90;;;;;;;3.88;48.92;100281.91;18254580;32;20161;-59
2022/12/13 15:07:03;;;;;;;0.70;0.70;;;;;;;3.44;50.50;100286.06;18490761;32;20107;-59
2022/12/13 15:17:06;;;;;;;0.60;0.60;;;;;;;3.19;50.72;100288.00;18487724;32;20110;-59
2022/12/13 15:27:11;;;;;;;3.45;3.25;;;;;;;2.98;50.88;100305.47;18383425;32;20164;-59
2022/12/13 15:37:18;;;;;;;3.92;1.10;;;;;;;2.49;54.01;100316.16;18426476;32;20107;-59
2022/12/13 15:47:34;;;;;;;0.60;0.60;;;;;;;2.35;53.61;100326.91;18474791;32;20085;-59
2022/12/13 15:57:50;;;;;;;0.40;0.40;;;;;;;2.28;53.23;100334.41;18443317;32;20105;-59
2022/12/13 16:07:59;;;;;;;0.60;0.60;;;;;;;2.10;53.66;100337.31;18432744;32;20107;-59
2022/12/13 16:18:22;;;;;;;0.70;0.70;;;;;;;1.86;53.80;100343.41;18432069;32;20101;-59
2022/12/13 16:28:34;;;;;;;0.65;0.65;;;;;;;1.59;54.95;100360.56;18380331;32;168985;-59
2022/12/13 16:38:39;;;;;;;0.70;0.70;;;;;;;1.27;55.48;100360.31;18367979;32;20095;-58
2022/12/13 16:48:49;;;;;;;0.60;0.60;;;;;;;1.20;55.70;100363.53;18408571;32;20098;-59
2022/12/13 16:58:53;;;;;;;4.47;4.20;;;;;;;1.01;56.16;100350.00;18376341;32;20089;-58
2022/12/13 17:09:00;;;;;;;1.73;1.63;;;;;;;0.97;56.10;100363.56;18410826;32;20089;-58
2022/12/13 17:19:04;;;;;;;0.60;0.60;;;;;;;0.61;56.91;100356.22;18426472;32;20096;-58
2022/12/13 17:29:09;;;;;;;0.60;0.60;;;;;;;0.55;57.21;100355.22;18434607;32;20104;-58
2022/12/13 17:39:21;;;;;;;1.80;1.73;;;;;;;0.31;57.82;100365.41;18422776;32;20120;-58
2022/12/13 17:49:45;;;;;;;0.70;0.70;;;;;;;0.23;57.54;100379.63;18426532;32;20085;-58
2022/12/13 17:59:49;;;;;;;0.80;0.80;;;;;;;-0.23;58.71;100383.81;18423680;32;20342;-58
2022/12/13 18:10:16;;;;;;;8.23;4.30;;;;;;;-0.34;57.99;100371.38;18424550;32;20472;-58
2022/12/13 18:20:21;;;;;;;0.60;0.60;;;;;;;-0.55;59.20;100373.94;18426706;32;20736;-58
2022/12/13 18:30:27;;;;;;;1.03;1.03;;;;;;;-0.70;58.55;100380.16;18437889;32;20097;-58
2022/12/13 18:40:31;;;;;;;0.50;0.50;;;;;;;-0.67;59.16;100386.22;18484531;32;20365;-58
2022/12/13 18:50:35;;;;;;;0.67;0.67;;;;;;;-0.85;59.78;100393.19;18429480;32;20109;-58
2022/12/13 19:00:39;;;;;;;0.60;0.60;;;;;;;-0.96;59.45;100380.69;18430280;32;20093;-59
2022/12/13 19:10:46;;;;;;;0.80;0.80;;;;;;;-1.12;59.65;100375.75;18413722;32;20441;-58
2022/12/13 19:20:51;;;;;;;2.40;2.30;;;;;;;-1.02;59.27;100379.63;18427085;32;20100;-59
2022/12/13 19:30:57;;;;;;;1.00;1.00;;;;;;;-1.24;60.30;100382.91;18458100;32;20128;-58
2022/12/13 19:41:01;;;;;;;0.80;0.80;;;;;;;-1.28;60.66;100381.00;18414063;32;20132;-58
2022/12/13 19:51:08;;;;;;;2.27;2.13;;;;;;;-1.23;59.77;100382.09;18426336;32;20423;-58
2022/12/13 20:01:13;;;;;;;0.60;0.60;;;;;;;-1.68;59.53;100395.41;18428186;32;20531;-58
2022/12/13 20:11:37;;;;;;;2.50;2.40;;;;;;;-1.85;60.93;100395.47;18425445;32;20123;-58
2022/12/13 20:22:00;;;;;;;0.70;0.70;;;;;;;-1.64;60.33;100402.41;18442011;32;20105;-59
2022/12/13 20:32:05;;;;;;;1.83;1.73;;;;;;;-1.64;60.05;100391.31;18418852;32;20187;-58
2022/12/13 20:42:08;;;;;;;0.60;0.60;;;;;;;-1.99;60.67;100391.38;18416734;32;20502;-58
2022/12/13 20:52:13;;;;;;;0.70;0.70;;;;;;;-1.89;60.43;100402.94;18427186;32;20085;-58
2022/12/13 21:02:17;;;;;;;0.80;0.80;;;;;;;-1.96;60.03;100407.72;18419229;32;20094;-58
2022/12/13 21:12:21;;;;;;;0.60;0.60;;;;;;;-2.00;59.87;100410.06;18432416;32;20097;-58
2022/12/13 21:22:25;;;;;;;8.57;8.20;;;;;;;-2.00;59.53;100395.59;18431772;32;20191;-58
2022/12/13 21:32:29;;;;;;;0.93;0.93;;;;;;;-2.25;59.83;100394.41;18453865;32;20123;-57
2022/12/13 21:42:32;;;;;;;0.67;0.67;;;;;;;-2.91;59.71;100386.81;18429555;32;20125;-58
2022/12/13 21:52:37;;;;;;;1.63;1.53;;;;;;;-2.69;60.32;100382.81;18425432;32;20108;-58
2022/12/13 22:02:40;;;;;;;0.63;0.63;;;;;;;-2.62;60.36;100381.47;18429806;32;20084;-58
2022/12/13 22:12:45;;;;;;;0.70;0.70;;;;;;;-2.38;60.26;100381.81;18466942;32;20743;-58
2022/12/13 22:22:48;;;;;;;0.60;0.60;;;;;;;-2.24;60.77;100379.94;18438911;32;20167;-58
2022/12/13 22:32:52;;;;;;;0.50;0.50;;;;;;;-2.15;61.20;100365.03;18418195;32;20120;-58
2022/12/13 22:42:55;;;;;;;0.60;0.60;;;;;;;-2.36;62.66;100364.84;18346268;32;20094;-58
2022/12/13 22:53:00;;;;;;;3.83;3.70;;;;;;;-2.12;62.84;100352.41;18294845;32;20144;-58
2022/12/13 23:03:03;;;;;;;0.70;0.70;;;;;;;-1.95;62.21;100344.66;18315450;32;20227;-58
2022/12/13 23:13:12;;;;;;;3.37;3.17;;;;;;;-1.91;62.28;100353.38;18317984;32;20139;-59
2022/12/13 23:23:16;;;;;;;0.77;0.77;;;;;;;-2.01;62.98;100341.78;18340766;32;20089;-58
2022/12/13 23:33:20;;;;;;;0.50;0.50;;;;;;;-1.97;63.86;100333.47;18342819;32;20097;-58
2022/12/13 23:43:23;;;;;;;0.80;0.80;;;;;;;-2.00;64.10;100333.31;18456938;32;20177;-58
2022/12/13 23:53:28;;;;;;;0.70;0.70;;;;;;;-1.69;64.57;100329.66;18498770;32;20160;-58
